K41 EFJY-EFJY

Flight info

Callsign K41
Flight time 0h 39m
Altitude 1500
Route POHJA AANEKOSKI TA TC
Aircraft G115/L-S/C

Departure

Time 2026-04-25 15:54
Airport Jyväskylä Airport (EFJY)

Arrival

Time 2026-04-25 16:33
Airport Jyväskylä Airport (EFJY)
Time Latitude Longitude Altitude Speed Heading
2026-04-25 15:42 62.40190 25.65669 462 ft 0 kts 53°
2026-04-25 15:48 62.40193 25.65684 462 ft 5 kts 69°
2026-04-25 15:48 62.40209 25.65764 460 ft 6 kts 54°
2026-04-25 15:49 62.40238 25.65834 459 ft 7 kts 45°
2026-04-25 15:49 62.40268 25.65898 459 ft 6 kts 44°
2026-04-25 15:49 62.40311 25.65988 459 ft 9 kts 44°
2026-04-25 15:49 62.40339 25.66047 460 ft 10 kts 40°
2026-04-25 15:50 62.40385 25.66143 461 ft 9 kts 43°
2026-04-25 15:50 62.40383 25.66275 462 ft 12 kts 132°
2026-04-25 15:50 62.40310 25.66441 463 ft 19 kts 134°
2026-04-25 15:50 62.40211 25.66662 462 ft 21 kts 134°
2026-04-25 15:51 62.40117 25.66868 463 ft 18 kts 136°
2026-04-25 15:51 62.40064 25.66986 464 ft 16 kts 134°
2026-04-25 15:51 62.39951 25.67242 465 ft 20 kts 134°
2026-04-25 15:51 62.39853 25.67467 460 ft 21 kts 135°
2026-04-25 15:52 62.39743 25.67709 448 ft 24 kts 133°
2026-04-25 15:52 62.39626 25.67972 436 ft 25 kts 133°
2026-04-25 15:52 62.39523 25.68291 415 ft 27 kts 119°
2026-04-25 15:52 62.39449 25.68583 419 ft 16 kts 123°
2026-04-25 15:53 62.39404 25.68786 423 ft 16 kts 98°
2026-04-25 15:53 62.39452 25.68886 425 ft 10 kts 354°
2026-04-25 15:53 62.39594 25.68618 435 ft 50 kts 313°
2026-04-25 15:53 62.39901 25.67900 504 ft 74 kts 315°
2026-04-25 15:54 62.40277 25.67049 696 ft 79 kts 316°
2026-04-25 15:54 62.40691 25.66243 938 ft 81 kts 331°
2026-04-25 15:54 62.41205 25.65714 1123 ft 86 kts 343°
2026-04-25 15:54 62.41804 25.65358 1259 ft 93 kts 347°
2026-04-25 15:55 62.42429 25.64930 1426 ft 99 kts 345°
2026-04-25 15:55 62.43141 25.64451 1429 ft 114 kts 346°
2026-04-25 15:55 62.43928 25.63959 1429 ft 122 kts 345°
2026-04-25 15:55 62.44773 25.63446 1368 ft 129 kts 347°
2026-04-25 15:56 62.45644 25.62991 1352 ft 129 kts 354°
2026-04-25 15:56 62.46532 25.62777 1297 ft 130 kts 356°
2026-04-25 15:56 62.47422 25.62597 1289 ft 129 kts 354°
2026-04-25 15:56 62.48307 25.62373 1302 ft 125 kts 351°
2026-04-25 15:57 62.49152 25.62076 1323 ft 124 kts 352°
2026-04-25 15:57 62.50001 25.61858 1347 ft 123 kts 353°
2026-04-25 15:57 62.50861 25.61642 1318 ft 126 kts 355°
2026-04-25 15:57 62.51731 25.61548 1348 ft 124 kts 358°
2026-04-25 15:58 62.52599 25.61524 1329 ft 126 kts 359°
2026-04-25 15:58 62.53480 25.61478 1302 ft 128 kts 358°
2026-04-25 15:58 62.54365 25.61357 1335 ft 124 kts 358°
2026-04-25 15:58 62.55212 25.61309 1338 ft 125 kts 360°
2026-04-25 15:59 62.56076 25.61198 1293 ft 123 kts 357°
2026-04-25 15:59 62.56914 25.61115 1271 ft 119 kts 356°
2026-04-25 15:59 62.57746 25.61084 1330 ft 119 kts 358°
2026-04-25 15:59 62.58584 25.61028 1356 ft 121 kts 358°
2026-04-25 16:00 62.59425 25.61036 1338 ft 122 kts
2026-04-25 16:00 62.59710 25.61054 1328 ft 121 kts
2026-04-25 16:00 62.60990 25.62145 1297 ft 125 kts 40°
2026-04-25 16:00 62.61551 25.63621 1278 ft 126 kts 49°
2026-04-25 16:01 62.61997 25.65247 1290 ft 125 kts 58°
2026-04-25 16:01 62.62182 25.67099 1172 ft 136 kts 98°
2026-04-25 16:01 62.61837 25.68961 1258 ft 127 kts 110°
2026-04-25 16:01 62.61467 25.70628 1332 ft 122 kts 110°
2026-04-25 16:02 62.61002 25.72242 1293 ft 135 kts 119°
2026-04-25 16:02 62.60505 25.73718 1675 ft 115 kts 124°
2026-04-25 16:02 62.59981 25.74961 1955 ft 110 kts 125°
2026-04-25 16:02 62.59458 25.76207 2183 ft 112 kts 128°
2026-04-25 16:03 62.58874 25.77374 2319 ft 118 kts 134°
2026-04-25 16:03 62.58256 25.78438 2586 ft 107 kts 136°
2026-04-25 16:03 62.57697 25.79523 2755 ft 108 kts 128°
2026-04-25 16:03 62.57188 25.80651 2976 ft 107 kts 127°
2026-04-25 16:04 62.56677 25.81910 3073 ft 116 kts 122°
2026-04-25 16:04 62.56173 25.83374 3164 ft 122 kts 120°
2026-04-25 16:04 62.55872 25.84990 3250 ft 116 kts 80°
2026-04-25 16:04 62.56203 25.86473 3297 ft 110 kts 32°
2026-04-25 16:05 62.56946 25.86563 3226 ft 119 kts 332°
2026-04-25 16:05 62.57265 25.84953 3222 ft 133 kts 262°
2026-04-25 16:05 62.55681 25.84856 2980 ft 145 kts 104°
2026-04-25 16:06 62.56003 25.86597 2788 ft 133 kts 17°
2026-04-25 16:06 62.56696 25.85704 2740 ft 136 kts 288°
2026-04-25 16:06 62.56264 25.84037 2950 ft 136 kts 199°
2026-04-25 16:06 62.55494 25.84815 2926 ft 134 kts 104°
2026-04-25 16:07 62.55274 25.86567 3153 ft 118 kts 89°
2026-04-25 16:07 62.55277 25.87152 3231 ft 111 kts 71°
2026-04-25 16:07 62.56294 25.88364 3271 ft 113 kts 348°
2026-04-25 16:07 62.56944 25.87368 3268 ft 126 kts 300°
2026-04-25 16:08 62.56791 25.85497 3266 ft 140 kts 232°
2026-04-25 16:08 62.55919 25.84703 3299 ft 144 kts 174°
2026-04-25 16:08 62.55117 25.85780 3243 ft 140 kts 111°
2026-04-25 16:08 62.55078 25.87746 3238 ft 124 kts 60°
2026-04-25 16:09 62.55637 25.88896 3392 ft 110 kts 13°
2026-04-25 16:09 62.56344 25.88519 3491 ft 112 kts 319°
2026-04-25 16:09 62.56536 25.86832 3520 ft 131 kts 263°
2026-04-25 16:09 62.55984 25.85193 3529 ft 142 kts 214°
2026-04-25 16:10 62.55037 25.85251 3490 ft 145 kts 143°
2026-04-25 16:10 62.54252 25.86527 3320 ft 135 kts 136°
2026-04-25 16:10 62.53591 25.87778 3326 ft 124 kts 131°
2026-04-25 16:10 62.52920 25.88973 3272 ft 129 kts 143°
2026-04-25 16:11 62.52180 25.89997 3373 ft 125 kts 142°
2026-04-25 16:11 62.51486 25.91105 3444 ft 126 kts 137°
2026-04-25 16:11 62.50773 25.92292 3447 ft 131 kts 139°
2026-04-25 16:11 62.50082 25.93563 3427 ft 129 kts 131°
2026-04-25 16:12 62.49451 25.94950 3392 ft 129 kts 129°
2026-04-25 16:12 62.48802 25.96316 3375 ft 132 kts 132°
2026-04-25 16:12 62.48119 25.97662 3385 ft 132 kts 132°
2026-04-25 16:12 62.47894 25.98119 3411 ft 131 kts 131°
2026-04-25 16:13 62.46878 26.00528 3460 ft 129 kts 123°
2026-04-25 16:13 62.46377 26.02105 3482 ft 128 kts 114°
2026-04-25 16:13 62.46054 26.03835 3460 ft 124 kts 90°
2026-04-25 16:13 62.46253 26.05553 3367 ft 118 kts 44°
2026-04-25 16:14 62.46959 26.06253 3314 ft 112 kts
2026-04-25 16:14 62.47706 26.06264 3401 ft 104 kts 359°
2026-04-25 16:14 62.48450 26.06227 3402 ft 105 kts 355°
2026-04-25 16:14 62.49156 26.06087 3461 ft 104 kts 354°
2026-04-25 16:15 62.49890 26.05934 3470 ft 106 kts 354°
2026-04-25 16:15 62.50619 26.05684 3451 ft 106 kts 350°
2026-04-25 16:15 62.51319 26.05425 3409 ft 97 kts 350°
2026-04-25 16:15 62.51962 26.05135 3387 ft 93 kts 349°
2026-04-25 16:16 62.52588 26.04936 3350 ft 89 kts 353°
2026-04-25 16:16 62.53201 26.04664 3267 ft 89 kts 347°
2026-04-25 16:16 62.53798 26.04327 3300 ft 93 kts 346°
2026-04-25 16:16 62.54429 26.03883 3303 ft 95 kts 341°
2026-04-25 16:17 62.55021 26.03328 3368 ft 91 kts 337°
2026-04-25 16:17 62.55593 26.02639 3362 ft 96 kts 325°
2026-04-25 16:17 62.55926 26.01372 3369 ft 106 kts 283°
2026-04-25 16:17 62.55962 25.99735 3346 ft 110 kts 279°
2026-04-25 16:18 62.55999 25.98091 3402 ft 111 kts 277°
2026-04-25 16:18 62.56007 25.97551 3419 ft 110 kts 278°
2026-04-25 16:18 62.55992 25.94791 3514 ft 108 kts 275°
2026-04-25 16:18 62.55958 25.93139 3510 ft 110 kts 277°
2026-04-25 16:19 62.55949 25.91486 3507 ft 110 kts 275°
2026-04-25 16:19 62.55873 25.89818 3519 ft 115 kts 262°
2026-04-25 16:19 62.55476 25.88251 3555 ft 118 kts 239°
2026-04-25 16:20 62.54509 25.86249 3428 ft 118 kts 220°
2026-04-25 16:20 62.53446 25.85096 2648 ft 144 kts 207°
2026-04-25 16:20 62.51376 25.84187 1470 ft 135 kts 189°
2026-04-25 16:21 62.50506 25.83793 1386 ft 126 kts 196°
2026-04-25 16:21 62.49688 25.83287 1431 ft 118 kts 198°
2026-04-25 16:21 62.48925 25.82727 1442 ft 115 kts 202°
2026-04-25 16:21 62.48196 25.82120 1432 ft 111 kts 203°
2026-04-25 16:22 62.47477 25.81556 1434 ft 114 kts 195°
2026-04-25 16:22 62.46636 25.81124 1461 ft 131 kts 193°
2026-04-25 16:22 62.45735 25.80664 1512 ft 136 kts 201°
2026-04-25 16:22 62.44855 25.79895 1459 ft 135 kts 203°
2026-04-25 16:23 62.44025 25.79245 1438 ft 122 kts 201°
2026-04-25 16:23 62.43280 25.78529 1413 ft 116 kts 206°
2026-04-25 16:23 62.42527 25.77843 1362 ft 117 kts 199°
2026-04-25 16:23 62.41781 25.77166 1330 ft 118 kts 210°
2026-04-25 16:24 62.41090 25.76191 1280 ft 116 kts 213°
2026-04-25 16:24 62.40408 25.75359 1250 ft 116 kts 213°
2026-04-25 16:24 62.39751 25.74269 1077 ft 119 kts 224°
2026-04-25 16:24 62.39165 25.73083 906 ft 114 kts 227°
2026-04-25 16:25 62.38660 25.71935 721 ft 89 kts 243°
2026-04-25 16:25 62.38592 25.71558 685 ft 74 kts 266°
2026-04-25 16:25 62.38923 25.70136 481 ft 69 kts 315°
2026-04-25 16:25 62.39237 25.69411 428 ft 59 kts 317°
2026-04-25 16:26 62.39497 25.68852 419 ft 61 kts 314°
2026-04-25 16:26 62.39829 25.68052 566 ft 77 kts 315°
2026-04-25 16:26 62.40210 25.67176 772 ft 84 kts 317°
2026-04-25 16:26 62.40608 25.66246 1044 ft 85 kts 315°
2026-04-25 16:27 62.41103 25.65769 1243 ft 85 kts 12°
2026-04-25 16:27 62.41614 25.66535 1184 ft 100 kts 64°
2026-04-25 16:27 62.41410 25.68025 1316 ft 108 kts 124°
2026-04-25 16:27 62.40943 25.69196 1392 ft 101 kts 124°
2026-04-25 16:28 62.40436 25.70356 1421 ft 102 kts 122°
2026-04-25 16:28 62.39952 25.71511 1385 ft 108 kts 128°
2026-04-25 16:28 62.39363 25.72408 1246 ft 107 kts 163°
2026-04-25 16:28 62.38687 25.72184 965 ft 89 kts 226°
2026-04-25 16:29 62.38513 25.71176 714 ft 70 kts 296°
2026-04-25 16:29 62.38776 25.70438 562 ft 62 kts 317°
2026-04-25 16:29 62.39059 25.69789 502 ft 57 kts 317°
2026-04-25 16:29 62.39321 25.69212 439 ft 52 kts 315°
2026-04-25 16:30 62.39512 25.68784 482 ft 67 kts 315°
2026-04-25 16:30 62.39992 25.67687 714 ft 81 kts 316°
2026-04-25 16:30 62.40384 25.66732 964 ft 86 kts 314°
2026-04-25 16:30 62.40774 25.65811 1206 ft 83 kts 327°
2026-04-25 16:31 62.41313 25.65759 1320 ft 91 kts 39°
2026-04-25 16:31 62.41589 25.67176 1309 ft 120 kts 86°
2026-04-25 16:31 62.41153 25.68688 1361 ft 125 kts 137°
2026-04-25 16:31 62.40539 25.69740 1361 ft 100 kts 133°
2026-04-25 16:32 62.40041 25.70809 1452 ft 92 kts 124°
2026-04-25 16:32 62.39599 25.71892 1552 ft 105 kts 130°
2026-04-25 16:32 62.39023 25.72806 1573 ft 93 kts 179°
2026-04-25 16:32 62.38474 25.72070 1211 ft 98 kts 258°
2026-04-25 16:33 62.38541 25.70856 798 ft 73 kts 330°
2026-04-25 16:33 62.38860 25.70184 555 ft 66 kts 323°
2026-04-25 16:33 62.39136 25.69620 439 ft 51 kts 316°
2026-04-25 16:33 62.39333 25.69206 419 ft 31 kts 320°
2026-04-25 16:34 62.39429 25.68914 418 ft 12 kts 261°
2026-04-25 16:34 62.39405 25.68804 423 ft 9 kts 271°
2026-04-25 16:34 62.39430 25.68673 416 ft 14 kts 294°
2026-04-25 16:34 62.39479 25.68480 418 ft 14 kts 297°
2026-04-25 16:35 62.39527 25.68290 423 ft 14 kts 295°
2026-04-25 16:35 62.39565 25.68132 425 ft 10 kts 299°
2026-04-25 16:35 62.39601 25.68027 427 ft 9 kts 314°
2026-04-25 16:35 62.39647 25.67926 438 ft 10 kts 315°
2026-04-25 16:36 62.39725 25.67761 446 ft 24 kts 317°
2026-04-25 16:36 62.39764 25.67685 450 ft 26 kts 309°
2026-04-25 16:36 62.39928 25.67298 464 ft 23 kts 318°
2026-04-25 16:36 62.40028 25.67082 464 ft 19 kts 316°
2026-04-25 16:37 62.40100 25.66917 463 ft 14 kts 313°
2026-04-25 16:37 62.40159 25.66780 462 ft 12 kts 314°
2026-04-25 16:37 62.40219 25.66651 462 ft 20 kts 313°
2026-04-25 16:37 62.40306 25.66450 463 ft 16 kts 315°
2026-04-25 16:38 62.40379 25.66289 463 ft 14 kts 314°
2026-04-25 16:38 62.40380 25.66131 461 ft 12 kts 228°
2026-04-25 16:38 62.40302 25.65966 459 ft 17 kts 223°
2026-04-25 16:38 62.40215 25.65783 460 ft 18 kts 224°
2026-04-25 16:39 62.40196 25.65703 461 ft 5 kts 319°
2026-04-25 16:39 62.40198 25.65655 462 ft 3 kts 234°
2026-04-25 16:39 62.40194 25.65644 462 ft 0 kts 233°